Time;durP1;ratioP1;P1;durP2;ratioP2;P2;SDS_P1;SDS_P2;PMS_P1;PMS_P2;Temp;Humidity;BMP_temperature;BMP_pressure;BME280_temperature;BME280_humidity;BME280_pressure;Samples;Min_cycle;Max_cycle;Signal;HPM_P1;HPM_P2
2020/12/05 00:00:58;;;;;;;;;;;;;;;;;;5012649;28;1509;-79
2020/12/05 00:03:23;;;;;;;;;;;;;;;;;;5014234;28;1318;-80
2020/12/05 00:05:48;;;;;;;;;;;;;;;;;;5014176;28;1979;-79
2020/12/05 00:08:14;;;;;;;;;;;;;;;;;;5014682;28;886;-80
2020/12/05 00:10:39;;;;;;;;;;;;;;;;;;5013681;28;791;-80
2020/12/05 00:13:04;;;;;;;;;;;;;;;;;;5012452;28;1310;-80
2020/12/05 00:15:29;;;;;;;;;;;;;;;;;;5013912;28;968;-79
2020/12/05 00:17:54;;;;;;;;;;;;;;;;;;5012708;28;1442;-79
2020/12/05 00:20:20;;;;;;;;;;;;;;;;;;5012503;28;1290;-80
2020/12/05 00:22:45;;;;;;;;;;;;;;;;;;5013786;28;1294;-79
2020/12/05 00:25:10;;;;;;;;;;;;;;;;;;5015397;28;1973;-79
2020/12/05 00:27:36;;;;;;;;;;;;;;;;;;5016250;28;1392;-79
2020/12/05 00:30:01;;;;;;;;;;;;;;;;;;5016048;28;1189;-80
2020/12/05 00:32:28;;;;;;;;;;;;;;;;;;5016135;28;1377;-79
2020/12/05 00:34:53;;;;;;;;;;;;;;;;;;5016243;28;1356;-80
2020/12/05 00:37:18;;;;;;;;;;;;;;;;;;5017203;28;878;-79
2020/12/05 00:39:44;;;;;;;;;;;;;;;;;;5016251;28;1545;-79
2020/12/05 00:42:09;;;;;;;;;;;;;;;;;;5015722;28;1239;-79
2020/12/05 00:44:34;;;;;;;;;;;;;;;;;;5016219;28;1961;-79
2020/12/05 00:46:59;;;;;;;;;;;;;;;;;;5017142;28;791;-79
2020/12/05 00:49:25;;;;;;;;;;;;;;;;;;5015816;28;1192;-79
2020/12/05 00:51:50;;;;;;;;;;;;;;;;;;5016685;28;1278;-80
2020/12/05 00:54:15;;;;;;;;;;;;;;;;;;5015798;28;1197;-80
2020/12/05 00:56:41;;;;;;;;;;;;;;;;;;5016806;28;894;-79
2020/12/05 00:59:06;;;;;;;;;;;;;;;;;;5016499;28;893;-79
2020/12/05 01:01:31;;;;;;;;;;;;;;;;;;5016464;28;1365;-79
2020/12/05 01:03:57;;;;;;;;;;;;;;;;;;5015779;28;1246;-79
2020/12/05 01:06:22;;;;;;;;;;;;;;;;;;5016554;28;1902;-79
2020/12/05 01:08:47;;;;;;;;;;;;;;;;;;5016964;28;838;-79
2020/12/05 01:11:13;;;;;;;;;;;;;;;;;;5015081;28;1366;-79
2020/12/05 01:13:39;;;;;;;;;;;;;;;;;;5016445;28;1392;-80
2020/12/05 01:16:04;;;;;;;;;;;;;;;;;;5015238;28;1445;-79
2020/12/05 01:18:29;;;;;;;;;;;;;;;;;;5017311;28;853;-79
2020/12/05 01:20:54;;;;;;;;;;;;;;;;;;5016646;28;900;-79
2020/12/05 01:23:20;;;;;;;;;;;;;;;;;;5017027;28;1425;-80
2020/12/05 01:25:45;;;;;;;;;;;;;;;;;;5015631;28;1969;-79
2020/12/05 01:28:10;;;;;;;;;;;;;;;;;;5015623;28;1270;-79
2020/12/05 01:30:35;;;;;;;;;;;;;;;;;;5015665;28;1150;-79
2020/12/05 01:33:01;;;;;;;;;;;;;;;;;;5016855;28;1381;-79
2020/12/05 01:35:26;;;;;;;;;;;;;;;;;;5016552;28;968;-80
2020/12/05 01:37:51;;;;;;;;;;;;;;;;;;5016569;28;913;-79
2020/12/05 01:40:16;;;;;;;;;;;;;;;;;;5016423;28;925;-80
2020/12/05 01:42:43;;;;;;;;;;;;;;;;;;5016458;28;1325;-80
2020/12/05 01:45:08;;;;;;;;;;;;;;;;;;5015128;28;1966;-80
2020/12/05 01:47:35;;;;;;;;;;;;;;;;;;5016365;28;865;-80
2020/12/05 01:50:00;;;;;;;;;;;;;;;;;;5016364;28;873;-80
2020/12/05 01:52:25;;;;;;;;;;;;;;;;;;5016598;28;1318;-80
2020/12/05 01:54:51;;;;;;;;;;;;;;;;;;5015428;28;1249;-81
2020/12/05 01:57:17;;;;;;;;;;;;;;;;;;5016123;28;1002;-80
2020/12/05 01:59:42;;;;;;;;;;;;;;;;;;5016076;28;963;-80
2020/12/05 02:02:07;;;;;;;;;;;;;;;;;;5014833;28;1425;-80
2020/12/05 02:04:39;;;;;;;;;;;;;;;;;;5014804;28;1902;-80
2020/12/05 02:07:15;;;;;;;;;;;;;;;;;;5014906;28;1155;-80
2020/12/05 02:09:45;;;;;;;;;;;;;;;;;;5015033;28;806;-80
2020/12/05 02:12:24;;;;;;;;;;;;;;;;;;5015968;28;1373;-80
2020/12/05 02:14:51;;;;;;;;;;;;;;;;;;5014653;28;1440;-80
2020/12/05 02:17:18;;;;;;;;;;;;;;;;;;5015836;28;948;-80
2020/12/05 02:19:51;;;;;;;;;;;;;;;;;;5014404;28;1359;-80
2020/12/05 02:22:23;;;;;;;;;;;;;;;;;;5014874;28;1286;-80
2020/12/05 02:24:49;;;;;;;;;;;;;;;;;;5015808;28;1965;-80
2020/12/05 02:27:15;;;;;;;;;;;;;;;;;;5015863;28;845;-80
2020/12/05 02:29:40;;;;;;;;;;;;;;;;;;5014573;28;831;-80
2020/12/05 02:32:06;;;;;;;;;;;;;;;;;;5015632;28;1394;-79
2020/12/05 02:34:32;;;;;;;;;;;;;;;;;;5015782;28;913;-79
2020/12/05 02:37:02;;;;;;;;;;;;;;;;;;5014247;28;1388;-80
2020/12/05 02:39:29;;;;;;;;;;;;;;;;;;5015605;28;980;-80
2020/12/05 02:41:54;;;;;;;;;;;;;;;;;;5014291;28;1369;-80
2020/12/05 02:44:19;;;;;;;;;;;;;;;;;;5014074;28;1910;-80
2020/12/05 02:46:46;;;;;;;;;;;;;;;;;;5014744;28;811;-80
2020/12/05 02:49:12;;;;;;;;;;;;;;;;;;5015567;28;812;-80
2020/12/05 02:51:40;;;;;;;;;;;;;;;;;;5014928;28;1286;-79
2020/12/05 02:54:05;;;;;;;;;;;;;;;;;;5014156;28;1629;-80
2020/12/05 02:56:31;;;;;;;;;;;;;;;;;;5015235;28;897;-80
2020/12/05 02:58:56;;;;;;;;;;;;;;;;;;5014237;28;862;-81
2020/12/05 03:01:21;;;;;;;;;;;;;;;;;;5013912;28;1283;-80
2020/12/05 03:03:46;;;;;;;;;;;;;;;;;;5015196;28;905;-81
2020/12/05 03:06:12;;;;;;;;;;;;;;;;;;5013790;28;1961;-81
2020/12/05 03:08:37;;;;;;;;;;;;;;;;;;5014109;28;1148;-81
2020/12/05 03:11:03;;;;;;;;;;;;;;;;;;5014228;28;1397;-81
2020/12/05 03:13:28;;;;;;;;;;;;;;;;;;5015422;28;806;-80
2020/12/05 03:15:53;;;;;;;;;;;;;;;;;;5028384;28;1281;-80
2020/12/05 03:18:18;;;;;;;;;;;;;;;;;;5034958;28;1035;-80
2020/12/05 03:20:44;;;;;;;;;;;;;;;;;;5034607;28;810;-80
2020/12/05 03:23:09;;;;;;;;;;;;;;;;;;5034581;28;1306;-81
2020/12/05 03:25:34;;;;;;;;;;;;;;;;;;5033401;28;1898;-81
2020/12/05 03:27:59;;;;;;;;;;;;;;;;;;5034609;28;834;-80
2020/12/05 03:30:25;;;;;;;;;;;;;;;;;;5034446;28;984;-81
2020/12/05 03:32:50;;;;;;;;;;;;;;;;;;5033240;28;1391;-81
2020/12/05 03:35:15;;;;;;;;;;;;;;;;;;5033769;28;1227;-81
2020/12/05 03:37:40;;;;;;;;;;;;;;;;;;5033255;28;873;-81
2020/12/05 03:40:06;;;;;;;;;;;;;;;;;;5033146;28;1196;-81
2020/12/05 03:42:31;;;;;;;;;;;;;;;;;;5034676;28;1389;-81
2020/12/05 03:44:56;;;;;;;;;;;;;;;;;;5034452;28;1958;-81
2020/12/05 03:47:22;;;;;;;;;;;;;;;;;;5034413;28;1051;-81
2020/12/05 03:49:47;;;;;;;;;;;;;;;;;;5033150;28;1581;-81
2020/12/05 03:52:12;;;;;;;;;;;;;;;;;;5033020;28;1414;-81
2020/12/05 03:54:38;;;;;;;;;;;;;;;;;;5033431;28;1164;-81
2020/12/05 03:57:03;;;;;;;;;;;;;;;;;;5033381;28;1631;-81
2020/12/05 03:59:28;;;;;;;;;;;;;;;;;;5038094;28;1014;-81
2020/12/05 04:01:53;;;;;;;;;;;;;;;;;;5037002;28;1420;-81
2020/12/05 04:04:19;;;;;;;;;;;;;;;;;;5036751;28;1894;-81
2020/12/05 04:06:44;;;;;;;;;;;;;;;;;;5037356;28;1218;-81
2020/12/05 04:09:09;;;;;;;;;;;;;;;;;;5038191;28;976;-81
2020/12/05 04:11:38;;;;;;;;;;;;;;;;;;5036941;28;1332;-81
2020/12/05 04:14:03;;;;;;;;;;;;;;;;;;5038419;28;1335;-81
2020/12/05 04:16:29;;;;;;;;;;;;;;;;;;5039914;28;805;-81
2020/12/05 04:18:54;;;;;;;;;;;;;;;;;;5039576;28;830;-81
2020/12/05 04:21:19;;;;;;;;;;;;;;;;;;5040830;28;1309;-81
2020/12/05 04:23:44;;;;;;;;;;;;;;;;;;5039837;28;810;-81
2020/12/05 04:26:10;;;;;;;;;;;;;;;;;;5038126;28;1909;-81
2020/12/05 04:28:35;;;;;;;;;;;;;;;;;;5038846;28;913;-81
2020/12/05 04:31:01;;;;;;;;;;;;;;;;;;5036054;28;1381;-81
2020/12/05 04:33:26;;;;;;;;;;;;;;;;;;5037854;28;814;-81
2020/12/05 04:35:51;;;;;;;;;;;;;;;;;;5036068;28;1442;-81
2020/12/05 04:38:16;;;;;;;;;;;;;;;;;;5036101;28;1150;-81
2020/12/05 04:40:42;;;;;;;;;;;;;;;;;;5037200;28;1020;-81
2020/12/05 04:43:07;;;;;;;;;;;;;;;;;;5037435;28;1389;-81
2020/12/05 04:45:33;;;;;;;;;;;;;;;;;;5036063;28;1969;-82
2020/12/05 04:47:59;;;;;;;;;;;;;;;;;;5036158;28;1307;-82
2020/12/05 04:50:25;;;;;;;;;;;;;;;;;;5037058;28;763;-81
2020/12/05 04:52:52;;;;;;;;;;;;;;;;;;5035873;28;1337;-82
2020/12/05 04:55:21;;;;;;;;;;;;;;;;;;5037349;28;881;-82
2020/12/05 04:57:47;;;;;;;;;;;;;;;;;;5035772;28;858;-82
2020/12/05 05:00:13;;;;;;;;;;;;;;;;;;5035907;28;1136;-82
2020/12/05 05:02:40;;;;;;;;;;;;;;;;;;5037037;28;1274;-82
2020/12/05 05:05:07;;;;;;;;;;;;;;;;;;5035724;28;1962;-81
2020/12/05 05:07:35;;;;;;;;;;;;;;;;;;5037162;28;881;-81
2020/12/05 05:10:09;;;;;;;;;;;;;;;;;;5034859;28;1430;-82
2020/12/05 05:12:36;;;;;;;;;;;;;;;;;;5036494;28;2467;-82
2020/12/05 05:15:01;;;;;;;;;;;;;;;;;;5037008;28;850;-81
2020/12/05 05:17:26;;;;;;;;;;;;;;;;;;5035529;28;1394;-82
2020/12/05 05:19:52;;;;;;;;;;;;;;;;;;5036587;28;821;-82
2020/12/05 05:22:20;;;;;;;;;;;;;;;;;;5035635;28;1346;-82
2020/12/05 05:24:58;;;;;;;;;;;;;;;;;;5037098;28;1963;-82
2020/12/05 05:27:23;;;;;;;;;;;;;;;;;;5036594;28;809;-82
2020/12/05 05:29:49;;;;;;;;;;;;;;;;;;5036386;28;852;-82
2020/12/05 05:32:27;;;;;;;;;;;;;;;;;;5035265;28;1342;-82
2020/12/05 05:35:10;;;;;;;;;;;;;;;;;;5036476;28;864;-81
2020/12/05 05:37:35;;;;;;;;;;;;;;;;;;5035380;28;1491;-81
2020/12/05 05:40:02;;;;;;;;;;;;;;;;;;5034961;28;1380;-81
2020/12/05 05:42:28;;;;;;;;;;;;;;;;;;5035008;28;1322;-81
2020/12/05 05:45:13;;;;;;;;;;;;;;;;;;5036330;28;1902;-81
2020/12/05 05:47:39;;;;;;;;;;;;;;;;;;5036132;28;1211;-81
2020/12/05 05:50:17;;;;;;;;;;;;;;;;;;5035430;28;1252;-81
2020/12/05 05:52:42;;;;;;;;;;;;;;;;;;5035144;28;1330;-81
2020/12/05 05:55:08;;;;;;;;;;;;;;;;;;5036350;28;999;-82
2020/12/05 05:57:33;;;;;;;;;;;;;;;;;;5036216;28;1095;-82
2020/12/05 06:00:00;;;;;;;;;;;;;;;;;;5036319;28;1203;-82
2020/12/05 06:02:26;;;;;;;;;;;;;;;;;;5038145;28;1377;-82
2020/12/05 06:04:51;;;;;;;;;;;;;;;;;;5036149;28;1975;-81
2020/12/05 06:07:17;;;;;;;;;;;;;;;;;;5036013;28;1211;-82
2020/12/05 06:09:49;;;;;;;;;;;;;;;;;;5035784;28;921;-81
2020/12/05 06:12:33;;;;;;;;;;;;;;;;;;5036104;28;1282;-81
2020/12/05 06:14:59;;;;;;;;;;;;;;;;;;5034546;28;1210;-82
2020/12/05 06:17:24;;;;;;;;;;;;;;;;;;5034456;28;1018;-81
2020/12/05 06:19:50;;;;;;;;;;;;;;;;;;5034145;28;1577;-82
2020/12/05 06:22:25;;;;;;;;;;;;;;;;;;5034592;28;1393;-82
2020/12/05 06:25:04;;;;;;;;;;;;;;;;;;5035758;28;1901;-82
2020/12/05 06:27:31;;;;;;;;;;;;;;;;;;5035502;28;1071;-82
2020/12/05 06:29:57;;;;;;;;;;;;;;;;;;5035516;28;842;-82
2020/12/05 06:32:41;;;;;;;;;;;;;;;;;;5034039;28;1286;-82
2020/12/05 06:35:28;;;;;;;;;;;;;;;;;;5035430;28;878;-81
2020/12/05 06:37:54;;;;;;;;;;;;;;;;;;5033924;28;1033;-82
2020/12/05 06:40:21;;;;;;;;;;;;;;;;;;5033808;28;913;-81
2020/12/05 06:42:48;;;;;;;;;;;;;;;;;;5035092;28;1322;-82
2020/12/05 06:45:39;;;;;;;;;;;;;;;;;;5035177;28;1961;-82
2020/12/05 06:48:07;;;;;;;;;;;;;;;;;;5031985;28;1121;-82
2020/12/05 06:50:33;;;;;;;;;;;;;;;;;;5034999;28;889;-81
2020/12/05 06:52:59;;;;;;;;;;;;;;;;;;5034029;28;1357;-82
2020/12/05 06:55:31;;;;;;;;;;;;;;;;;;5033711;28;1058;-81
2020/12/05 06:58:04;;;;;;;;;;;;;;;;;;5035156;28;924;-82
2020/12/05 07:00:34;;;;;;;;;;;;;;;;;;5033525;28;818;-82
2020/12/05 07:03:00;;;;;;;;;;;;;;;;;;5035018;28;1326;-82
2020/12/05 07:05:33;;;;;;;;;;;;;;;;;;5033594;28;1886;-82
2020/12/05 07:07:59;;;;;;;;;;;;;;;;;;5034801;28;901;-82
2020/12/05 07:10:43;;;;;;;;;;;;;;;;;;5034771;28;893;-82
2020/12/05 07:13:12;;;;;;;;;;;;;;;;;;5034714;28;1405;-82
2020/12/05 07:15:37;;;;;;;;;;;;;;;;;;5033815;28;798;-82
2020/12/05 07:18:02;;;;;;;;;;;;;;;;;;5034686;28;814;-81
2020/12/05 07:20:28;;;;;;;;;;;;;;;;;;5034597;28;842;-81
2020/12/05 07:22:54;;;;;;;;;;;;;;;;;;5034618;28;1274;-81
2020/12/05 07:25:19;;;;;;;;;;;;;;;;;;5034614;28;1890;-82
2020/12/05 07:27:45;;;;;;;;;;;;;;;;;;5033779;28;1343;-81
2020/12/05 07:30:10;;;;;;;;;;;;;;;;;;5033206;28;1239;-81
2020/12/05 07:32:37;;;;;;;;;;;;;;;;;;5034410;28;1420;-81
2020/12/05 07:35:04;;;;;;;;;;;;;;;;;;5038722;28;968;-81
2020/12/05 07:37:29;;;;;;;;;;;;;;;;;;5037446;28;1300;-81
2020/12/05 07:39:55;;;;;;;;;;;;;;;;;;5038861;28;782;-81
2020/12/05 07:42:21;;;;;;;;;;;;;;;;;;5037244;28;1482;-81
2020/12/05 07:44:47;;;;;;;;;;;;;;;;;;5037436;28;1907;-81
2020/12/05 07:47:19;;;;;;;;;;;;;;;;;;5037176;28;1167;-81
2020/12/05 07:49:51;;;;;;;;;;;;;;;;;;5038476;28;970;-81
2020/12/05 07:52:21;;;;;;;;;;;;;;;;;;5037061;28;1390;-81
2020/12/05 07:54:49;;;;;;;;;;;;;;;;;;5037071;28;1238;-81
2020/12/05 07:57:15;;;;;;;;;;;;;;;;;;5037071;28;1220;-81
2020/12/05 07:59:40;;;;;;;;;;;;;;;;;;5036732;28;1562;-81
2020/12/05 08:02:09;;;;;;;;;;;;;;;;;;5038067;28;1377;-81
2020/12/05 08:05:07;;;;;;;;;;;;;;;;;;5036797;28;1894;-81
2020/12/05 08:07:36;;;;;;;;;;;;;;;;;;5015532;28;1193;-81
2020/12/05 08:10:05;;;;;;;;;;;;;;;;;;5037894;28;1022;-81
2020/12/05 08:12:41;;;;;;;;;;;;;;;;;;5037863;28;1555;-82
2020/12/05 08:15:06;;;;;;;;;;;;;;;;;;5038425;28;782;-82
2020/12/05 08:17:39;;;;;;;;;;;;;;;;;;5036823;28;886;-82
2020/12/05 08:20:04;;;;;;;;;;;;;;;;;;5036729;28;1488;-83
2020/12/05 08:22:30;;;;;;;;;;;;;;;;;;5036451;28;1384;-83
2020/12/05 08:24:56;;;;;;;;;;;;;;;;;;5038258;28;2021;-82
2020/12/05 08:27:21;;;;;;;;;;;;;;;;;;5036611;28;1177;-82
2020/12/05 08:29:48;;;;;;;;;;;;;;;;;;5036239;28;991;-82
2020/12/05 08:32:20;;;;;;;;;;;;;;;;;;5036288;28;1275;-82
2020/12/05 08:34:45;;;;;;;;;;;;;;;;;;5037939;28;857;-82
2020/12/05 08:37:16;;;;;;;;;;;;;;;;;;5036237;28;1204;-81
2020/12/05 08:39:43;;;;;;;;;;;;;;;;;;5037649;28;881;-82
2020/12/05 08:42:10;;;;;;;;;;;;;;;;;;5036408;28;1486;-82
2020/12/05 08:44:35;;;;;;;;;;;;;;;;;;5036358;28;1890;-82
2020/12/05 08:47:01;;;;;;;;;;;;;;;;;;5036689;28;1101;-82
2020/12/05 08:49:27;;;;;;;;;;;;;;;;;;5037574;28;825;-82
2020/12/05 08:51:53;;;;;;;;;;;;;;;;;;5035661;28;1316;-81
2020/12/05 08:54:18;;;;;;;;;;;;;;;;;;5035886;28;1465;-83
2020/12/05 08:56:44;;;;;;;;;;;;;;;;;;5035867;28;948;-82
2020/12/05 08:59:09;;;;;;;;;;;;;;;;;;5037055;28;924;-82
2020/12/05 09:01:35;;;;;;;;;;;;;;;;;;5036907;28;1290;-82
2020/12/05 09:04:00;;;;;;;;;;;;;;;;;;5036043;28;1429;-82
2020/12/05 09:06:26;;;;;;;;;;;;;;;;;;5035913;28;1902;-82
2020/12/05 09:08:51;;;;;;;;;;;;;;;;;;5035703;28;812;-82
2020/12/05 09:11:23;;;;;;;;;;;;;;;;;;5037006;28;1353;-81
2020/12/05 09:13:49;;;;;;;;;;;;;;;;;;5035650;28;885;-81
2020/12/05 09:16:14;;;;;;;;;;;;;;;;;;5036817;28;818;-81
2020/12/05 09:18:43;;;;;;;;;;;;;;;;;;5035831;28;1121;-81
2020/12/05 09:21:16;;;;;;;;;;;;;;;;;;5035207;28;1588;-83
2020/12/05 09:23:42;;;;;;;;;;;;;;;;;;5037292;28;842;-82
2020/12/05 09:26:08;;;;;;;;;;;;;;;;;;5036570;28;1951;-82
2020/12/05 09:28:33;;;;;;;;;;;;;;;;;;5036845;28;805;-82
2020/12/05 09:31:03;;;;;;;;;;;;;;;;;;5036486;28;841;-82
2020/12/05 09:33:28;;;;;;;;;;;;;;;;;;5035181;28;1210;-82
2020/12/05 09:35:53;;;;;;;;;;;;;;;;;;5036456;28;826;-81
2020/12/05 09:38:18;;;;;;;;;;;;;;;;;;5036515;28;828;-81
2020/12/05 09:40:44;;;;;;;;;;;;;;;;;;5036296;28;873;-81
2020/12/05 09:43:09;;;;;;;;;;;;;;;;;;5035184;28;1436;-81
2020/12/05 09:45:34;;;;;;;;;;;;;;;;;;5035350;28;1902;-82
2020/12/05 09:48:00;;;;;;;;;;;;;;;;;;5036708;28;1162;-82
2020/12/05 09:50:25;;;;;;;;;;;;;;;;;;5037136;28;833;-82
2020/12/05 09:52:51;;;;;;;;;;;;;;;;;;5034899;28;1452;-82
2020/12/05 09:55:16;;;;;;;;;;;;;;;;;;5035010;28;775;-82
2020/12/05 09:57:41;;;;;;;;;;;;;;;;;;5034755;28;1211;-81
2020/12/05 10:00:08;;;;;;;;;;;;;;;;;;5034581;28;1442;-82
2020/12/05 10:02:33;;;;;;;;;;;;;;;;;;5034636;28;1337;-82
2020/12/05 10:04:58;;;;;;;;;;;;;;;;;;5035838;28;1953;-82
2020/12/05 10:07:24;;;;;;;;;;;;;;;;;;5035848;28;795;-81
2020/12/05 10:09:49;;;;;;;;;;;;;;;;;;5035783;28;975;-81
2020/12/05 10:12:16;;;;;;;;;;;;;;;;;;5034421;28;1314;-83
2020/12/05 10:14:41;;;;;;;;;;;;;;;;;;5035829;28;802;-82
2020/12/05 10:17:06;;;;;;;;;;;;;;;;;;5035575;28;860;-82
2020/12/05 10:19:32;;;;;;;;;;;;;;;;;;5035872;28;857;-81
2020/12/05 10:21:57;;;;;;;;;;;;;;;;;;5035381;28;1401;-82
2020/12/05 10:24:22;;;;;;;;;;;;;;;;;;5035394;28;1886;-82
2020/12/05 10:26:48;;;;;;;;;;;;;;;;;;5035526;28;955;-81
2020/12/05 10:29:14;;;;;;;;;;;;;;;;;;5034640;28;783;-81
2020/12/05 10:31:42;;;;;;;;;;;;;;;;;;5035563;28;1270;-82
2020/12/05 10:34:08;;;;;;;;;;;;;;;;;;5035328;28;995;-82
2020/12/05 10:36:33;;;;;;;;;;;;;;;;;;5035480;28;988;-81
2020/12/05 10:38:58;;;;;;;;;;;;;;;;;;5033995;28;1167;-81
2020/12/05 10:41:23;;;;;;;;;;;;;;;;;;5035276;28;1298;-82
2020/12/05 10:43:49;;;;;;;;;;;;;;;;;;5034284;28;1245;-83
2020/12/05 10:46:14;;;;;;;;;;;;;;;;;;5035193;28;1955;-82
2020/12/05 10:48:39;;;;;;;;;;;;;;;;;;5033968;28;1762;-81
2020/12/05 10:51:06;;;;;;;;;;;;;;;;;;5033780;28;1420;-82
2020/12/05 10:53:31;;;;;;;;;;;;;;;;;;5033832;28;1188;-82
2020/12/05 10:55:56;;;;;;;;;;;;;;;;;;5034297;28;1453;-81
2020/12/05 10:58:22;;;;;;;;;;;;;;;;;;5035177;28;817;-81
2020/12/05 11:00:47;;;;;;;;;;;;;;;;;;5035056;28;834;-82
2020/12/05 11:03:12;;;;;;;;;;;;;;;;;;5033456;28;1319;-82
2020/12/05 11:05:38;;;;;;;;;;;;;;;;;;5035012;28;1882;-81
2020/12/05 11:08:03;;;;;;;;;;;;;;;;;;5034239;28;818;-82
2020/12/05 11:10:28;;;;;;;;;;;;;;;;;;5034811;28;925;-81
2020/12/05 11:12:54;;;;;;;;;;;;;;;;;;5033546;28;1400;-82
2020/12/05 11:15:19;;;;;;;;;;;;;;;;;;5033736;28;1199;-82
2020/12/05 11:17:44;;;;;;;;;;;;;;;;;;5033363;28;1188;-84
2020/12/05 11:20:10;;;;;;;;;;;;;;;;;;5034480;28;853;-83
2020/12/05 11:22:35;;;;;;;;;;;;;;;;;;5033280;28;1440;-83
2020/12/05 11:25:00;;;;;;;;;;;;;;;;;;5034713;28;1947;-81
2020/12/05 11:27:25;;;;;;;;;;;;;;;;;;5034822;28;884;-81
2020/12/05 11:29:51;;;;;;;;;;;;;;;;;;5033292;28;1605;-81
2020/12/05 11:32:16;;;;;;;;;;;;;;;;;;5034488;28;1404;-81
2020/12/05 11:34:42;;;;;;;;;;;;;;;;;;5034564;28;912;-81
2020/12/05 11:37:07;;;;;;;;;;;;;;;;;;5035722;28;957;-81
2020/12/05 11:39:32;;;;;;;;;;;;;;;;;;5034877;28;893;-81
2020/12/05 11:41:57;;;;;;;;;;;;;;;;;;5034368;28;1302;-81
2020/12/05 11:44:23;;;;;;;;;;;;;;;;;;5033175;28;1225;-81
2020/12/05 11:46:51;;;;;;;;;;;;;;;;;;5034622;28;924;-81
2020/12/05 11:49:17;;;;;;;;;;;;;;;;;;5034524;28;821;-81
2020/12/05 11:51:42;;;;;;;;;;;;;;;;;;5034228;28;1381;-81
2020/12/05 11:54:07;;;;;;;;;;;;;;;;;;5033290;28;1675;-81
2020/12/05 11:56:33;;;;;;;;;;;;;;;;;;5033096;28;1182;-81
2020/12/05 11:58:58;;;;;;;;;;;;;;;;;;5032947;28;1342;-81
2020/12/05 12:01:23;;;;;;;;;;;;;;;;;;5035501;28;1408;-81
2020/12/05 12:03:48;;;;;;;;;;;;;;;;;;5034094;28;944;-80
2020/12/05 12:06:14;;;;;;;;;;;;;;;;;;5034074;28;1969;-81
2020/12/05 12:08:40;;;;;;;;;;;;;;;;;;5033146;28;1519;-81
2020/12/05 12:11:05;;;;;;;;;;;;;;;;;;5032820;28;1355;-81
2020/12/05 12:13:30;;;;;;;;;;;;;;;;;;5034162;28;932;-81
2020/12/05 12:15:55;;;;;;;;;;;;;;;;;;5034239;28;866;-81
2020/12/05 12:18:21;;;;;;;;;;;;;;;;;;5034261;28;862;-81
2020/12/05 12:20:46;;;;;;;;;;;;;;;;;;5038146;28;856;-81
2020/12/05 12:23:11;;;;;;;;;;;;;;;;;;5038441;28;1302;-81
2020/12/05 12:25:38;;;;;;;;;;;;;;;;;;5037455;28;1901;-81
2020/12/05 12:28:03;;;;;;;;;;;;;;;;;;5039464;28;908;-81
2020/12/05 12:30:28;;;;;;;;;;;;;;;;;;5037914;28;829;-81
2020/12/05 12:32:54;;;;;;;;;;;;;;;;;;5036373;28;1346;-80
2020/12/05 12:35:19;;;;;;;;;;;;;;;;;;5038395;28;801;-81
2020/12/05 12:37:44;;;;;;;;;;;;;;;;;;5036260;28;1203;-81
2020/12/05 12:40:10;;;;;;;;;;;;;;;;;;5036106;28;1290;-80
2020/12/05 12:42:35;;;;;;;;;;;;;;;;;;5037533;28;1377;-81
2020/12/05 12:45:00;;;;;;;;;;;;;;;;;;5037622;28;1894;-81
2020/12/05 12:49:57;;;;;;;;;;;;;;;;;;5044558;28;663;-81
2020/12/05 12:52:22;;;;;;;;;;;;;;;;;;5044500;28;1350;-81
2020/12/05 12:54:48;;;;;;;;;;;;;;;;;;5046032;28;818;-80
2020/12/05 12:57:13;;;;;;;;;;;;;;;;;;5045464;28;1004;-80
2020/12/05 12:59:38;;;;;;;;;;;;;;;;;;5040823;28;1237;-80
2020/12/05 13:02:04;;;;;;;;;;;;;;;;;;5044663;28;1290;-80
2020/12/05 13:04:29;;;;;;;;;;;;;;;;;;5040570;28;1902;-81
2020/12/05 13:06:57;;;;;;;;;;;;;;;;;;5039405;28;1246;-81
2020/12/05 13:09:23;;;;;;;;;;;;;;;;;;5040118;28;861;-80
2020/12/05 13:11:49;;;;;;;;;;;;;;;;;;5038058;28;1310;-81
2020/12/05 13:14:15;;;;;;;;;;;;;;;;;;5038768;28;1505;-81
2020/12/05 13:16:40;;;;;;;;;;;;;;;;;;5039167;28;916;-84
2020/12/05 13:19:06;;;;;;;;;;;;;;;;;;5035604;28;1355;-82
2020/12/05 13:21:31;;;;;;;;;;;;;;;;;;5035695;28;1427;-84
2020/12/05 13:23:56;;;;;;;;;;;;;;;;;;5035625;28;1158;-83
2020/12/05 13:26:22;;;;;;;;;;;;;;;;;;5035286;28;1910;-82
2020/12/05 13:28:48;;;;;;;;;;;;;;;;;;5035440;28;841;-82
2020/12/05 13:31:13;;;;;;;;;;;;;;;;;;5034742;28;1326;-82
2020/12/05 13:33:39;;;;;;;;;;;;;;;;;;5037021;28;830;-82
2020/12/05 13:36:08;;;;;;;;;;;;;;;;;;5035179;28;1222;-82
2020/12/05 13:38:33;;;;;;;;;;;;;;;;;;5035107;28;1527;-81
2020/12/05 13:40:58;;;;;;;;;;;;;;;;;;5036370;28;913;-81
2020/12/05 13:43:24;;;;;;;;;;;;;;;;;;5036285;28;1279;-81
2020/12/05 13:45:49;;;;;;;;;;;;;;;;;;5036124;28;1956;-82
2020/12/05 13:48:14;;;;;;;;;;;;;;;;;;5035377;28;1247;-81
2020/12/05 13:50:39;;;;;;;;;;;;;;;;;;5035211;28;1209;-82
2020/12/05 13:53:05;;;;;;;;;;;;;;;;;;5035557;28;1337;-82
2020/12/05 13:55:30;;;;;;;;;;;;;;;;;;5035712;28;1153;-82
2020/12/05 13:57:55;;;;;;;;;;;;;;;;;;5036001;28;1199;-82
2020/12/05 14:00:20;;;;;;;;;;;;;;;;;;5034845;28;1207;-81
2020/12/05 14:02:46;;;;;;;;;;;;;;;;;;5037183;28;1369;-82
2020/12/05 14:05:11;;;;;;;;;;;;;;;;;;5036745;28;1893;-82
2020/12/05 14:07:36;;;;;;;;;;;;;;;;;;5034809;28;1317;-81
2020/12/05 14:10:02;;;;;;;;;;;;;;;;;;5034339;28;1362;-82
2020/12/05 14:12:28;;;;;;;;;;;;;;;;;;5034512;28;1362;-81
2020/12/05 14:14:53;;;;;;;;;;;;;;;;;;5035296;28;1279;-81
2020/12/05 14:17:19;;;;;;;;;;;;;;;;;;5034346;28;912;-81
2020/12/05 14:19:44;;;;;;;;;;;;;;;;;;5035647;28;869;-82
2020/12/05 14:22:09;;;;;;;;;;;;;;;;;;5035445;28;1388;-82
2020/12/05 14:24:34;;;;;;;;;;;;;;;;;;5035545;28;1886;-81
2020/12/05 14:27:00;;;;;;;;;;;;;;;;;;5034293;28;1481;-82
2020/12/05 14:29:25;;;;;;;;;;;;;;;;;;5035742;28;931;-81
2020/12/05 14:31:53;;;;;;;;;;;;;;;;;;5033336;28;1405;-81
2020/12/05 14:34:19;;;;;;;;;;;;;;;;;;5029274;28;1726;-81
2020/12/05 14:36:44;;;;;;;;;;;;;;;;;;5019875;28;1428;-81
2020/12/05 14:39:10;;;;;;;;;;;;;;;;;;5014352;28;1206;-81
2020/12/05 14:41:35;;;;;;;;;;;;;;;;;;5018103;28;1433;-81
2020/12/05 14:44:00;;;;;;;;;;;;;;;;;;5034913;28;826;-81
2020/12/05 14:46:25;;;;;;;;;;;;;;;;;;5031365;28;1965;-81
2020/12/05 14:48:51;;;;;;;;;;;;;;;;;;5015524;28;849;-81
2020/12/05 14:51:16;;;;;;;;;;;;;;;;;;5015409;28;1270;-82
2020/12/05 14:53:41;;;;;;;;;;;;;;;;;;5025111;28;1373;-82
2020/12/05 14:56:09;;;;;;;;;;;;;;;;;;5015426;28;798;-82
2020/12/05 14:58:34;;;;;;;;;;;;;;;;;;5015206;28;928;-81
2020/12/05 15:01:00;;;;;;;;;;;;;;;;;;5015062;28;805;-81
2020/12/05 15:03:25;;;;;;;;;;;;;;;;;;5013994;28;1480;-81
2020/12/05 15:05:51;;;;;;;;;;;;;;;;;;5015276;28;1965;-81
2020/12/05 15:08:16;;;;;;;;;;;;;;;;;;5015575;28;822;-81
2020/12/05 15:10:41;;;;;;;;;;;;;;;;;;5013978;28;965;-81
2020/12/05 15:13:07;;;;;;;;;;;;;;;;;;5014960;28;1361;-81
2020/12/05 15:15:32;;;;;;;;;;;;;;;;;;5015158;28;861;-81
2020/12/05 15:17:57;;;;;;;;;;;;;;;;;;5014168;28;921;-81
2020/12/05 15:20:23;;;;;;;;;;;;;;;;;;5013392;28;984;-81
2020/12/05 15:22:48;;;;;;;;;;;;;;;;;;5013684;28;1314;-82
2020/12/05 15:25:13;;;;;;;;;;;;;;;;;;5013376;28;1890;-81
2020/12/05 15:27:39;;;;;;;;;;;;;;;;;;5014221;28;914;-81
2020/12/05 15:30:05;;;;;;;;;;;;;;;;;;5013667;28;1248;-82
2020/12/05 15:32:30;;;;;;;;;;;;;;;;;;5014066;28;1542;-81
2020/12/05 15:34:55;;;;;;;;;;;;;;;;;;5014748;28;830;-82
2020/12/05 15:37:21;;;;;;;;;;;;;;;;;;5015278;28;885;-81
2020/12/05 15:39:46;;;;;;;;;;;;;;;;;;5015073;28;841;-81
2020/12/05 15:42:11;;;;;;;;;;;;;;;;;;5014972;28;1381;-81
2020/12/05 15:44:37;;;;;;;;;;;;;;;;;;5013749;28;1886;-81
2020/12/05 15:47:02;;;;;;;;;;;;;;;;;;5013466;28;1560;-82
2020/12/05 15:49:30;;;;;;;;;;;;;;;;;;5013833;28;1110;-81
2020/12/05 15:51:56;;;;;;;;;;;;;;;;;;5014833;28;1314;-81
2020/12/05 15:54:21;;;;;;;;;;;;;;;;;;5015567;28;1021;-81
2020/12/05 15:56:47;;;;;;;;;;;;;;;;;;5018632;28;874;-82
2020/12/05 15:59:13;;;;;;;;;;;;;;;;;;5018547;28;854;-81
2020/12/05 16:01:38;;;;;;;;;;;;;;;;;;5017198;28;1377;-81
2020/12/05 16:04:03;;;;;;;;;;;;;;;;;;5018435;28;826;-81
2020/12/05 16:06:28;;;;;;;;;;;;;;;;;;5017133;28;1902;-81
2020/12/05 16:08:54;;;;;;;;;;;;;;;;;;5017045;28;1330;-81
2020/12/05 16:11:19;;;;;;;;;;;;;;;;;;5016842;28;1302;-82
2020/12/05 16:13:44;;;;;;;;;;;;;;;;;;5017281;28;1306;-81
2020/12/05 16:16:10;;;;;;;;;;;;;;;;;;5018325;28;814;-81
2020/12/05 16:18:35;;;;;;;;;;;;;;;;;;5017818;28;837;-81
2020/12/05 16:21:00;;;;;;;;;;;;;;;;;;5017387;28;834;-81
2020/12/05 16:23:26;;;;;;;;;;;;;;;;;;5016193;28;1598;-81
2020/12/05 16:25:52;;;;;;;;;;;;;;;;;;5017591;28;1898;-81
2020/12/05 16:28:17;;;;;;;;;;;;;;;;;;5017504;28;829;-81
2020/12/05 16:30:42;;;;;;;;;;;;;;;;;;5016468;28;1228;-81
2020/12/05 16:33:07;;;;;;;;;;;;;;;;;;5016115;28;1468;-81
2020/12/05 16:35:33;;;;;;;;;;;;;;;;;;5017678;28;796;-81
2020/12/05 16:37:58;;;;;;;;;;;;;;;;;;5017564;28;950;-81
2020/12/05 16:40:23;;;;;;;;;;;;;;;;;;5017165;28;830;-81
2020/12/05 16:42:48;;;;;;;;;;;;;;;;;;5016228;28;1365;-81
2020/12/05 16:45:14;;;;;;;;;;;;;;;;;;5017132;28;1965;-81
2020/12/05 16:47:39;;;;;;;;;;;;;;;;;;5017480;28;912;-81
2020/12/05 16:50:04;;;;;;;;;;;;;;;;;;5016851;28;826;-81
2020/12/05 16:52:30;;;;;;;;;;;;;;;;;;5015785;28;1456;-81
2020/12/05 16:54:55;;;;;;;;;;;;;;;;;;5017144;28;845;-81
2020/12/05 16:57:20;;;;;;;;;;;;;;;;;;5017210;28;857;-81
2020/12/05 16:59:46;;;;;;;;;;;;;;;;;;5015443;28;1307;-81
2020/12/05 17:02:11;;;;;;;;;;;;;;;;;;5015947;28;1425;-81
2020/12/05 17:04:36;;;;;;;;;;;;;;;;;;5015485;28;1894;-81